sensor_id;sensor_type;location;lat;lon;timestamp;pressure;altitude;pressure_sealevel;temperature;humidity
40596;BME280;26304;48.794;9.820;2023-08-21T00:01:29;96951.97;;;25.88;72.91
40596;BME280;26304;48.794;9.820;2023-08-21T00:03:52;96947.47;;;25.85;73.02
40596;BME280;26304;48.794;9.820;2023-08-21T00:06:15;96949.78;;;25.83;72.71
40596;BME280;26304;48.794;9.820;2023-08-21T00:08:37;96953.47;;;25.89;72.39
40596;BME280;26304;48.794;9.820;2023-08-21T00:11:00;96952.84;;;25.82;72.55
40596;BME280;26304;48.794;9.820;2023-08-21T00:13:22;96945.19;;;25.84;72.46
40596;BME280;26304;48.794;9.820;2023-08-21T00:15:44;96950.19;;;25.82;72.47
40596;BME280;26304;48.794;9.820;2023-08-21T00:18:07;96943.09;;;25.71;72.96
40596;BME280;26304;48.794;9.820;2023-08-21T00:20:30;96949.06;;;25.79;73.05
40596;BME280;26304;48.794;9.820;2023-08-21T00:22:53;96946.94;;;25.70;73.02
40596;BME280;26304;48.794;9.820;2023-08-21T00:25:15;96943.81;;;25.76;73.21
40596;BME280;26304;48.794;9.820;2023-08-21T00:27:38;96944.09;;;25.81;72.73
40596;BME280;26304;48.794;9.820;2023-08-21T00:30:00;96942.75;;;25.69;73.17
40596;BME280;26304;48.794;9.820;2023-08-21T00:32:23;96944.22;;;25.74;73.39
40596;BME280;26304;48.794;9.820;2023-08-21T00:34:45;96946.00;;;25.81;72.44
40596;BME280;26304;48.794;9.820;2023-08-21T00:37:09;96945.31;;;25.77;72.68
40596;BME280;26304;48.794;9.820;2023-08-21T00:39:32;96941.50;;;25.78;73.13
40596;BME280;26304;48.794;9.820;2023-08-21T00:41:54;96949.88;;;25.76;72.54
40596;BME280;26304;48.794;9.820;2023-08-21T00:44:17;96946.81;;;25.78;72.51
40596;BME280;26304;48.794;9.820;2023-08-21T00:46:39;96941.03;;;25.83;72.41
40596;BME280;26304;48.794;9.820;2023-08-21T00:49:02;96944.56;;;25.76;72.46
40596;BME280;26304;48.794;9.820;2023-08-21T00:51:24;96942.22;;;25.78;72.42
40596;BME280;26304;48.794;9.820;2023-08-21T00:53:48;96937.09;;;25.67;72.57
40596;BME280;26304;48.794;9.820;2023-08-21T00:56:10;96939.63;;;25.74;72.91
40596;BME280;26304;48.794;9.820;2023-08-21T00:58:33;96935.09;;;25.71;72.85
40596;BME280;26304;48.794;9.820;2023-08-21T01:00:55;96933.00;;;25.59;73.57
40596;BME280;26304;48.794;9.820;2023-08-21T01:03:19;96934.19;;;25.58;72.85
40596;BME280;26304;48.794;9.820;2023-08-21T01:05:41;96933.72;;;25.63;73.22
40596;BME280;26304;48.794;9.820;2023-08-21T01:08:08;96932.19;;;25.62;73.09
40596;BME280;26304;48.794;9.820;2023-08-21T01:10:40;96934.25;;;25.54;73.06
40596;BME280;26304;48.794;9.820;2023-08-21T01:13:09;96942.84;;;25.62;73.02
40596;BME280;26304;48.794;9.820;2023-08-21T01:15:33;96943.44;;;25.50;73.43
40596;BME280;26304;48.794;9.820;2023-08-21T01:17:56;96939.56;;;25.54;72.79
40596;BME280;26304;48.794;9.820;2023-08-21T01:20:20;96940.59;;;25.61;72.43
40596;BME280;26304;48.794;9.820;2023-08-21T01:22:42;96943.44;;;25.50;73.18
40596;BME280;26304;48.794;9.820;2023-08-21T01:25:08;96944.91;;;25.51;73.29
40596;BME280;26304;48.794;9.820;2023-08-21T01:27:31;96950.56;;;25.56;73.16
40596;BME280;26304;48.794;9.820;2023-08-21T01:29:55;96938.78;;;25.54;72.94
40596;BME280;26304;48.794;9.820;2023-08-21T01:32:20;96938.78;;;25.54;72.74
40596;BME280;26304;48.794;9.820;2023-08-21T01:34:43;96941.56;;;25.47;73.12
40596;BME280;26304;48.794;9.820;2023-08-21T01:37:08;96937.34;;;25.49;73.17
40596;BME280;26304;48.794;9.820;2023-08-21T01:39:31;96939.59;;;25.51;72.63
40596;BME280;26304;48.794;9.820;2023-08-21T01:41:55;96938.84;;;25.50;73.13
40596;BME280;26304;48.794;9.820;2023-08-21T01:44:18;96940.91;;;25.39;73.31
40596;BME280;26304;48.794;9.820;2023-08-21T01:46:40;96933.38;;;25.34;73.58
40596;BME280;26304;48.794;9.820;2023-08-21T01:49:02;96933.06;;;25.28;74.29
40596;BME280;26304;48.794;9.820;2023-08-21T01:51:25;96937.50;;;25.38;73.52
40596;BME280;26304;48.794;9.820;2023-08-21T01:53:47;96931.06;;;25.36;73.66
40596;BME280;26304;48.794;9.820;2023-08-21T01:56:09;96922.41;;;25.28;74.04
40596;BME280;26304;48.794;9.820;2023-08-21T01:58:33;96929.16;;;25.36;74.08
40596;BME280;26304;48.794;9.820;2023-08-21T02:00:55;96930.66;;;25.37;74.23
40596;BME280;26304;48.794;9.820;2023-08-21T02:03:18;96934.53;;;25.33;73.89
40596;BME280;26304;48.794;9.820;2023-08-21T02:05:40;96930.25;;;25.39;73.76
40596;BME280;26304;48.794;9.820;2023-08-21T02:08:03;96936.44;;;25.32;73.71
40596;BME280;26304;48.794;9.820;2023-08-21T02:10:26;96930.78;;;25.27;74.51
40596;BME280;26304;48.794;9.820;2023-08-21T02:12:49;96931.28;;;25.18;74.42
40596;BME280;26304;48.794;9.820;2023-08-21T02:15:12;96928.13;;;25.27;73.78
40596;BME280;26304;48.794;9.820;2023-08-21T02:17:35;96931.53;;;25.31;73.98
40596;BME280;26304;48.794;9.820;2023-08-21T02:19:58;96935.31;;;25.30;73.86
40596;BME280;26304;48.794;9.820;2023-08-21T02:22:20;96933.84;;;25.25;74.26
40596;BME280;26304;48.794;9.820;2023-08-21T02:24:42;96929.69;;;25.24;74.35
40596;BME280;26304;48.794;9.820;2023-08-21T02:27:05;96926.66;;;25.22;75.31
40596;BME280;26304;48.794;9.820;2023-08-21T02:29:27;96920.66;;;25.14;75.49
40596;BME280;26304;48.794;9.820;2023-08-21T02:31:51;96925.16;;;25.21;74.97
40596;BME280;26304;48.794;9.820;2023-08-21T02:34:13;96923.88;;;25.33;74.24
40596;BME280;26304;48.794;9.820;2023-08-21T02:36:36;96931.53;;;25.27;74.77
40596;BME280;26304;48.794;9.820;2023-08-21T02:38:58;96921.00;;;25.20;75.53
40596;BME280;26304;48.794;9.820;2023-08-21T02:41:20;96920.38;;;25.09;75.74
40596;BME280;26304;48.794;9.820;2023-08-21T02:43:43;96925.25;;;25.14;75.76
40596;BME280;26304;48.794;9.820;2023-08-21T02:46:05;96927.16;;;25.13;75.92
40596;BME280;26304;48.794;9.820;2023-08-21T02:48:29;96921.78;;;25.17;75.44
40596;BME280;26304;48.794;9.820;2023-08-21T02:50:51;96923.25;;;25.22;75.03
40596;BME280;26304;48.794;9.820;2023-08-21T02:53:14;96916.19;;;25.08;75.72
40596;BME280;26304;48.794;9.820;2023-08-21T02:55:36;96923.03;;;25.09;75.09
40596;BME280;26304;48.794;9.820;2023-08-21T02:57:59;96921.16;;;25.06;75.45
40596;BME280;26304;48.794;9.820;2023-08-21T03:00:21;96929.09;;;25.09;75.28
40596;BME280;26304;48.794;9.820;2023-08-21T03:02:44;96922.69;;;25.07;74.75
40596;BME280;26304;48.794;9.820;2023-08-21T03:05:08;96929.84;;;25.10;74.67
40596;BME280;26304;48.794;9.820;2023-08-21T03:07:30;96922.44;;;24.94;75.00
40596;BME280;26304;48.794;9.820;2023-08-21T03:09:52;96918.97;;;25.00;74.67
40596;BME280;26304;48.794;9.820;2023-08-21T03:12:15;96925.78;;;25.01;74.66
40596;BME280;26304;48.794;9.820;2023-08-21T03:14:37;96915.50;;;25.04;74.92
40596;BME280;26304;48.794;9.820;2023-08-21T03:16:57;96913.28;;;24.98;75.04
40596;BME280;26304;48.794;9.820;2023-08-21T03:19:00;96912.13;;;24.99;74.90
40596;BME280;26304;48.794;9.820;2023-08-21T03:21:18;96919.25;;;25.06;74.57
40596;BME280;26304;48.794;9.820;2023-08-21T03:23:20;96908.22;;;25.08;74.92
40596;BME280;26304;48.794;9.820;2023-08-21T03:25:43;96915.84;;;25.06;75.14
40596;BME280;26304;48.794;9.820;2023-08-21T03:28:05;96916.72;;;24.95;75.48
40596;BME280;26304;48.794;9.820;2023-08-21T03:30:27;96911.41;;;24.95;75.09
40596;BME280;26304;48.794;9.820;2023-08-21T03:32:38;96918.97;;;25.00;75.24
40596;BME280;26304;48.794;9.820;2023-08-21T03:34:59;96918.28;;;24.93;75.24
40596;BME280;26304;48.794;9.820;2023-08-21T03:37:05;96916.38;;;24.93;75.15
40596;BME280;26304;48.794;9.820;2023-08-21T03:39:28;96913.78;;;24.90;75.10
40596;BME280;26304;48.794;9.820;2023-08-21T03:41:50;96912.63;;;24.91;75.35
40596;BME280;26304;48.794;9.820;2023-08-21T03:44:12;96916.09;;;24.88;75.22
40596;BME280;26304;48.794;9.820;2023-08-21T03:46:35;96915.69;;;24.89;75.08
40596;BME280;26304;48.794;9.820;2023-08-21T03:49:00;96921.81;;;24.82;75.54
40596;BME280;26304;48.794;9.820;2023-08-21T03:51:23;96933.94;;;24.87;75.29
40596;BME280;26304;48.794;9.820;2023-08-21T03:53:47;96926.72;;;24.88;74.87
40596;BME280;26304;48.794;9.820;2023-08-21T03:56:09;96928.25;;;24.85;75.36
40596;BME280;26304;48.794;9.820;2023-08-21T03:58:31;96935.09;;;24.86;74.94
40596;BME280;26304;48.794;9.820;2023-08-21T04:00:36;96932.00;;;24.91;74.86
40596;BME280;26304;48.794;9.820;2023-08-21T04:02:41;96930.47;;;24.90;74.90
40596;BME280;26304;48.794;9.820;2023-08-21T04:05:02;96935.13;;;24.82;74.80
40596;BME280;26304;48.794;9.820;2023-08-21T04:07:22;96932.44;;;24.86;74.62
40596;BME280;26304;48.794;9.820;2023-08-21T04:09:44;96935.16;;;24.79;75.51
40596;BME280;26304;48.794;9.820;2023-08-21T04:12:05;96942.00;;;24.80;74.83
40596;BME280;26304;48.794;9.820;2023-08-21T04:14:25;96935.44;;;24.88;75.13
40596;BME280;26304;48.794;9.820;2023-08-21T04:16:48;96943.03;;;24.90;75.15
40596;BME280;26304;48.794;9.820;2023-08-21T04:19:10;96936.97;;;24.86;75.59
40596;BME280;26304;48.794;9.820;2023-08-21T04:21:13;96947.34;;;24.38;78.15
40596;BME280;26304;48.794;9.820;2023-08-21T04:23:24;96943.34;;;24.19;78.82
40596;BME280;26304;48.794;9.820;2023-08-21T04:25:41;96942.06;;;23.89;80.62
40596;BME280;26304;48.794;9.820;2023-08-21T04:28:04;96940.72;;;23.60;82.37
40596;BME280;26304;48.794;9.820;2023-08-21T04:30:27;96957.81;;;23.58;83.00
40596;BME280;26304;48.794;9.820;2023-08-21T04:32:29;96962.03;;;23.45;83.59
40596;BME280;26304;48.794;9.820;2023-08-21T04:34:49;96954.06;;;23.45;83.79
40596;BME280;26304;48.794;9.820;2023-08-21T04:37:10;96962.09;;;23.38;83.69
40596;BME280;26304;48.794;9.820;2023-08-21T04:39:31;96959.66;;;23.65;82.16
40596;BME280;26304;48.794;9.820;2023-08-21T04:41:53;96967.75;;;23.40;83.49
40596;BME280;26304;48.794;9.820;2023-08-21T04:44:14;96967.34;;;23.45;83.39
40596;BME280;26304;48.794;9.820;2023-08-21T04:46:34;96967.03;;;23.36;83.78
40596;BME280;26304;48.794;9.820;2023-08-21T04:48:49;96970.44;;;23.36;83.79
40596;BME280;26304;48.794;9.820;2023-08-21T04:51:10;96965.91;;;23.33;83.32
40596;BME280;26304;48.794;9.820;2023-08-21T04:53:31;96965.47;;;23.42;83.25
40596;BME280;26304;48.794;9.820;2023-08-21T04:55:33;96964.69;;;23.45;82.65
40596;BME280;26304;48.794;9.820;2023-08-21T04:57:55;96965.88;;;23.37;83.06
40596;BME280;26304;48.794;9.820;2023-08-21T05:00:16;96977.66;;;23.36;83.41
40596;BME280;26304;48.794;9.820;2023-08-21T05:02:25;96974.25;;;23.32;84.02
40596;BME280;26304;48.794;9.820;2023-08-21T05:04:27;96973.03;;;23.44;83.07
40596;BME280;26304;48.794;9.820;2023-08-21T05:06:49;96976.19;;;23.20;84.29
40596;BME280;26304;48.794;9.820;2023-08-21T05:08:58;96973.03;;;23.44;83.19
40596;BME280;26304;48.794;9.820;2023-08-21T05:11:19;96976.81;;;23.50;83.25
40596;BME280;26304;48.794;9.820;2023-08-21T05:13:41;96979.50;;;23.43;83.44
40596;BME280;26304;48.794;9.820;2023-08-21T05:15:43;96974.22;;;23.35;83.96
40596;BME280;26304;48.794;9.820;2023-08-21T05:17:45;96976.81;;;23.50;83.77
40596;BME280;26304;48.794;9.820;2023-08-21T05:20:06;96979.09;;;23.48;84.08
40596;BME280;26304;48.794;9.820;2023-08-21T05:22:28;96981.69;;;23.55;84.03
40596;BME280;26304;48.794;9.820;2023-08-21T05:24:49;96979.72;;;23.70;83.48
40596;BME280;26304;48.794;9.820;2023-08-21T05:27:10;96979.31;;;23.75;82.99
40596;BME280;26304;48.794;9.820;2023-08-21T05:29:35;96986.09;;;23.80;82.80
40596;BME280;26304;48.794;9.820;2023-08-21T05:31:58;96984.97;;;23.77;83.15
40596;BME280;26304;48.794;9.820;2023-08-21T05:34:20;96989.13;;;23.82;82.74
40596;BME280;26304;48.794;9.820;2023-08-21T05:36:42;96976.25;;;23.84;83.25
40596;BME280;26304;48.794;9.820;2023-08-21T05:39:05;96988.41;;;23.74;83.71
40596;BME280;26304;48.794;9.820;2023-08-21T05:41:28;96984.91;;;23.91;82.50
40596;BME280;26304;48.794;9.820;2023-08-21T05:43:50;96987.72;;;24.22;80.26
40596;BME280;26304;48.794;9.820;2023-08-21T05:46:19;96989.81;;;24.42;79.14
40596;BME280;26304;48.794;9.820;2023-08-21T05:48:41;96991.63;;;24.52;78.26
40596;BME280;26304;48.794;9.820;2023-08-21T05:51:04;96982.09;;;24.62;77.79
40596;BME280;26304;48.794;9.820;2023-08-21T05:53:26;96987.72;;;24.68;77.11
40596;BME280;26304;48.794;9.820;2023-08-21T05:55:49;96980.88;;;24.66;76.97
40596;BME280;26304;48.794;9.820;2023-08-21T05:58:11;96994.53;;;24.69;76.71
40596;BME280;26304;48.794;9.820;2023-08-21T06:00:34;96988.84;;;24.70;77.38
40596;BME280;26304;48.794;9.820;2023-08-21T06:02:58;96987.66;;;24.71;76.94
40596;BME280;26304;48.794;9.820;2023-08-21T06:05:20;96992.97;;;24.75;76.89
40596;BME280;26304;48.794;9.820;2023-08-21T06:07:44;96995.97;;;24.77;76.37
40596;BME280;26304;48.794;9.820;2023-08-21T06:10:07;96999.72;;;24.79;76.26
40596;BME280;26304;48.794;9.820;2023-08-21T06:12:32;97003.50;;;24.82;76.43
40596;BME280;26304;48.794;9.820;2023-08-21T06:14:55;97000.47;;;24.83;76.19
40596;BME280;26304;48.794;9.820;2023-08-21T06:17:17;97004.25;;;24.86;76.09
40596;BME280;26304;48.794;9.820;2023-08-21T06:19:41;96999.66;;;24.87;75.76
40596;BME280;26304;48.794;9.820;2023-08-21T06:22:04;97003.84;;;24.88;75.45
40596;BME280;26304;48.794;9.820;2023-08-21T06:24:27;97012.56;;;24.88;75.55
40596;BME280;26304;48.794;9.820;2023-08-21T06:26:51;97005.72;;;24.91;75.96
40596;BME280;26304;48.794;9.820;2023-08-21T06:29:13;97006.47;;;24.91;75.48
40596;BME280;26304;48.794;9.820;2023-08-21T06:31:36;97006.06;;;24.93;75.63
40596;BME280;26304;48.794;9.820;2023-08-21T06:33:58;97011.75;;;24.95;75.05
40596;BME280;26304;48.794;9.820;2023-08-21T06:36:22;97017.00;;;24.98;74.91
40596;BME280;26304;48.794;9.820;2023-08-21T06:38:44;97019.25;;;25.04;75.63
40596;BME280;26304;48.794;9.820;2023-08-21T06:41:07;97017.69;;;25.06;75.53
40596;BME280;26304;48.794;9.820;2023-08-21T06:43:29;97015.75;;;25.10;75.74
40596;BME280;26304;48.794;9.820;2023-08-21T06:45:52;97018.38;;;25.14;75.79
40596;BME280;26304;48.794;9.820;2023-08-21T06:48:14;97016.78;;;25.20;76.50
40596;BME280;26304;48.794;9.820;2023-08-21T06:50:37;97018.28;;;25.21;76.21
40596;BME280;26304;48.794;9.820;2023-08-21T06:53:01;97025.47;;;25.24;76.11
40596;BME280;26304;48.794;9.820;2023-08-21T06:55:23;97022.00;;;25.27;75.57
40596;BME280;26304;48.794;9.820;2023-08-21T06:57:46;97019.69;;;25.33;75.71
40596;BME280;26304;48.794;9.820;2023-08-21T07:00:09;97024.97;;;25.36;75.48
40596;BME280;26304;48.794;9.820;2023-08-21T07:02:32;97027.91;;;25.46;76.63
40596;BME280;26304;48.794;9.820;2023-08-21T07:04:54;97020.69;;;25.12;77.25
40596;BME280;26304;48.794;9.820;2023-08-21T07:07:17;97019.25;;;25.04;77.39
40596;BME280;26304;48.794;9.820;2023-08-21T07:09:41;97029.91;;;25.00;77.30
40596;BME280;26304;48.794;9.820;2023-08-21T07:12:04;97021.53;;;25.01;77.73
40596;BME280;26304;48.794;9.820;2023-08-21T07:14:26;97027.22;;;25.04;76.86
40596;BME280;26304;48.794;9.820;2023-08-21T07:16:49;97022.66;;;25.04;77.01
40596;BME280;26304;48.794;9.820;2023-08-21T07:19:11;97024.53;;;25.07;77.35
40596;BME280;26304;48.794;9.820;2023-08-21T07:21:33;97020.72;;;25.08;77.12
40596;BME280;26304;48.794;9.820;2023-08-21T07:23:57;97022.63;;;25.08;77.28
40596;BME280;26304;48.794;9.820;2023-08-21T07:26:21;97027.94;;;25.08;76.93
40596;BME280;26304;48.794;9.820;2023-08-21T07:28:43;97028.66;;;25.12;77.10
40596;BME280;26304;48.794;9.820;2023-08-21T07:31:06;97032.41;;;25.18;77.00
40596;BME280;26304;48.794;9.820;2023-08-21T07:33:28;97034.88;;;25.36;75.79
40596;BME280;26304;48.794;9.820;2023-08-21T07:35:57;97036.34;;;25.41;75.39
40596;BME280;26304;48.794;9.820;2023-08-21T07:38:19;97031.75;;;25.41;74.51
40596;BME280;26304;48.794;9.820;2023-08-21T07:40:41;97036.28;;;25.44;74.96
40596;BME280;26304;48.794;9.820;2023-08-21T07:43:05;97038.16;;;25.47;74.39
40596;BME280;26304;48.794;9.820;2023-08-21T07:45:28;97032.41;;;25.49;74.71
40596;BME280;26304;48.794;9.820;2023-08-21T07:47:50;97040.00;;;25.50;74.08
40596;BME280;26304;48.794;9.820;2023-08-21T07:50:12;97033.16;;;25.53;74.40
40596;BME280;26304;48.794;9.820;2023-08-21T07:52:37;97036.94;;;25.52;73.74
40596;BME280;26304;48.794;9.820;2023-08-21T07:55:00;97037.69;;;25.52;74.30
40596;BME280;26304;48.794;9.820;2023-08-21T07:57:23;97040.72;;;25.54;74.17
40596;BME280;26304;48.794;9.820;2023-08-21T07:59:46;97042.22;;;25.55;74.07
40596;BME280;26304;48.794;9.820;2023-08-21T08:02:09;97042.97;;;25.56;74.09
40596;BME280;26304;48.794;9.820;2023-08-21T08:04:32;97042.22;;;25.55;74.51
40596;BME280;26304;48.794;9.820;2023-08-21T08:06:55;97040.69;;;25.58;73.42
40596;BME280;26304;48.794;9.820;2023-08-21T08:09:17;97032.69;;;25.58;73.27
40596;BME280;26304;48.794;9.820;2023-08-21T08:11:40;97040.28;;;25.60;74.05
40596;BME280;26304;48.794;9.820;2023-08-21T08:14:02;97039.88;;;25.61;74.14
40596;BME280;26304;48.794;9.820;2023-08-21T08:16:26;97042.53;;;25.61;74.46
40596;BME280;26304;48.794;9.820;2023-08-21T08:18:38;97046.34;;;25.60;74.22
40596;BME280;26304;48.794;9.820;2023-08-21T08:20:59;97044.03;;;25.62;73.61
40596;BME280;26304;48.794;9.820;2023-08-21T08:23:01;97034.91;;;25.63;74.19
40596;BME280;26304;48.794;9.820;2023-08-21T08:25:22;97042.09;;;25.66;74.98
40596;BME280;26304;48.794;9.820;2023-08-21T08:27:30;97041.22;;;25.73;73.59
40596;BME280;26304;48.794;9.820;2023-08-21T08:29:53;97043.41;;;25.82;73.97
40596;BME280;26304;48.794;9.820;2023-08-21T08:32:17;97040.69;;;25.85;75.67
40596;BME280;26304;48.794;9.820;2023-08-21T08:34:39;97044.66;;;25.73;75.85
40596;BME280;26304;48.794;9.820;2023-08-21T08:36:43;97040.50;;;25.72;76.75
40596;BME280;26304;48.794;9.820;2023-08-21T08:38:45;97045.69;;;25.80;75.88
40596;BME280;26304;48.794;9.820;2023-08-21T08:41:11;97048.22;;;25.63;76.92
40596;BME280;26304;48.794;9.820;2023-08-21T08:43:35;96998.53;;;25.53;77.40
40596;BME280;26304;48.794;9.820;2023-08-21T08:45:41;96997.69;;;25.25;76.37
40596;BME280;26304;48.794;9.820;2023-08-21T08:47:48;96999.19;;;24.95;74.82
40596;BME280;26304;48.794;9.820;2023-08-21T08:50:08;96998.97;;;24.79;73.70
40596;BME280;26304;48.794;9.820;2023-08-21T08:52:11;96996.06;;;24.66;72.54
40596;BME280;26304;48.794;9.820;2023-08-21T08:54:14;97002.34;;;24.45;71.35
40596;BME280;26304;48.794;9.820;2023-08-21T08:56:18;96998.94;;;24.41;71.13
40596;BME280;26304;48.794;9.820;2023-08-21T08:58:20;96994.41;;;24.38;70.45
40596;BME280;26304;48.794;9.820;2023-08-21T09:00:21;96994.97;;;24.18;70.28
40596;BME280;26304;48.794;9.820;2023-08-21T09:02:24;96997.56;;;24.25;70.08
40596;BME280;26304;48.794;9.820;2023-08-21T09:04:28;96991.16;;;24.19;69.27
40596;BME280;26304;48.794;9.820;2023-08-21T09:06:29;96996.59;;;24.05;68.69
40596;BME280;26304;48.794;9.820;2023-08-21T09:08:53;96998.81;;;24.10;68.14
40596;BME280;26304;48.794;9.820;2023-08-21T09:11:01;96994.97;;;24.18;68.45
40596;BME280;26304;48.794;9.820;2023-08-21T09:13:22;96992.41;;;24.04;68.64
40596;BME280;26304;48.794;9.820;2023-08-21T09:15:45;96996.59;;;24.05;67.64
40596;BME280;26304;48.794;9.820;2023-08-21T09:17:53;96999.38;;;23.83;68.56
40596;BME280;26304;48.794;9.820;2023-08-21T09:20:15;96986.44;;;23.92;68.25
40596;BME280;26304;48.794;9.820;2023-08-21T09:22:36;96990.63;;;23.86;68.41
40596;BME280;26304;48.794;9.820;2023-08-21T09:25:01;96992.16;;;23.87;67.95
40596;BME280;26304;48.794;9.820;2023-08-21T09:27:25;96986.09;;;23.83;67.54
40596;BME280;26304;48.794;9.820;2023-08-21T09:29:46;96986.88;;;23.76;67.83
40596;BME280;26304;48.794;9.820;2023-08-21T09:32:07;96998.34;;;23.66;68.13
40596;BME280;26304;48.794;9.820;2023-08-21T09:34:33;96954.28;;;23.76;67.90
40596;BME280;26304;48.794;9.820;2023-08-21T09:36:56;96952.72;;;23.82;68.56
40596;BME280;26304;48.794;9.820;2023-08-21T09:39:17;96985.34;;;23.83;68.54
40596;BME280;26304;48.794;9.820;2023-08-21T09:41:26;96990.69;;;23.72;68.13
40596;BME280;26304;48.794;9.820;2023-08-21T09:43:47;96988.47;;;23.67;67.92
40596;BME280;26304;48.794;9.820;2023-08-21T09:46:04;96985.75;;;23.74;67.89
40596;BME280;26304;48.794;9.820;2023-08-21T09:48:26;96981.59;;;23.73;68.21
40596;BME280;26304;48.794;9.820;2023-08-21T09:50:47;96983.88;;;23.74;68.35
40596;BME280;26304;48.794;9.820;2023-08-21T09:53:10;96984.28;;;23.69;67.73
40596;BME280;26304;48.794;9.820;2023-08-21T09:55:31;96974.44;;;23.63;67.67
40596;BME280;26304;48.794;9.820;2023-08-21T09:57:43;96979.78;;;23.59;67.78
40596;BME280;26304;48.794;9.820;2023-08-21T10:00:06;96986.94;;;23.66;67.85
40596;BME280;26304;48.794;9.820;2023-08-21T10:02:16;96977.50;;;23.65;67.21
40596;BME280;26304;48.794;9.820;2023-08-21T10:04:19;96977.91;;;23.56;68.13
40596;BME280;26304;48.794;9.820;2023-08-21T10:06:44;96982.06;;;23.61;67.99
40596;BME280;26304;48.794;9.820;2023-08-21T10:09:08;96982.06;;;23.61;68.18
40596;BME280;26304;48.794;9.820;2023-08-21T10:11:31;96964.94;;;23.69;66.62
40596;BME280;26304;48.794;9.820;2023-08-21T10:13:53;96970.31;;;23.58;67.01
40596;BME280;26304;48.794;9.820;2023-08-21T10:16:18;96965.28;;;23.71;68.57
40596;BME280;26304;48.794;9.820;2023-08-21T10:18:44;96972.53;;;23.67;67.33
40596;BME280;26304;48.794;9.820;2023-08-21T10:20:47;96971.03;;;23.66;66.87
40596;BME280;26304;48.794;9.820;2023-08-21T10:23:08;96974.50;;;23.55;66.97
40596;BME280;26304;48.794;9.820;2023-08-21T10:25:30;96968.09;;;23.49;67.99
40596;BME280;26304;48.794;9.820;2023-08-21T10:27:38;96963.09;;;23.62;66.68
40596;BME280;26304;48.794;9.820;2023-08-21T10:29:58;96963.50;;;23.57;66.83
40596;BME280;26304;48.794;9.820;2023-08-21T10:32:22;96957.06;;;23.54;67.29
40596;BME280;26304;48.794;9.820;2023-08-21T10:34:51;96961.22;;;23.55;67.26
40596;BME280;26304;48.794;9.820;2023-08-21T10:37:12;96951.34;;;23.60;68.72
40596;BME280;26304;48.794;9.820;2023-08-21T10:39:15;96957.41;;;23.56;67.58
40596;BME280;26304;48.794;9.820;2023-08-21T10:41:37;96951.31;;;23.67;68.76
40596;BME280;26304;48.794;9.820;2023-08-21T10:43:58;96952.84;;;23.61;68.28
40596;BME280;26304;48.794;9.820;2023-08-21T10:46:20;96959.72;;;23.54;67.28
40596;BME280;26304;48.794;9.820;2023-08-21T10:48:25;96944.47;;;23.66;67.25
40596;BME280;26304;48.794;9.820;2023-08-21T10:50:30;96946.84;;;23.53;67.49
40596;BME280;26304;48.794;9.820;2023-08-21T10:52:51;96946.75;;;23.67;67.78
40596;BME280;26304;48.794;9.820;2023-08-21T10:54:57;96948.38;;;23.50;67.92
40596;BME280;26304;48.794;9.820;2023-08-21T10:57:21;96941.53;;;23.53;67.85
40596;BME280;26304;48.794;9.820;2023-08-21T10:59:53;96937.31;;;23.59;67.97
40596;BME280;26304;48.794;9.820;2023-08-21T11:02:14;96939.22;;;23.58;67.97
40596;BME280;26304;48.794;9.820;2023-08-21T11:04:39;96938.84;;;23.60;67.85
40596;BME280;26304;48.794;9.820;2023-08-21T11:06:45;96933.50;;;23.64;67.90
40596;BME280;26304;48.794;9.820;2023-08-21T11:09:12;96936.56;;;23.58;68.16
40596;BME280;26304;48.794;9.820;2023-08-21T11:11:35;96936.91;;;23.68;67.87
40596;BME280;26304;48.794;9.820;2023-08-21T11:13:57;96942.25;;;23.61;67.66
40596;BME280;26304;48.794;9.820;2023-08-21T11:16:04;96944.88;;;23.64;68.09
40596;BME280;26304;48.794;9.820;2023-08-21T11:18:30;96943.66;;;23.72;68.07
40596;BME280;26304;48.794;9.820;2023-08-21T11:20:50;96963.44;;;23.68;69.64
40596;BME280;26304;48.794;9.820;2023-08-21T11:23:11;96962.63;;;23.74;71.05
40596;BME280;26304;48.794;9.820;2023-08-21T11:25:32;96929.63;;;23.75;70.26
40596;BME280;26304;48.794;9.820;2023-08-21T11:27:52;96931.47;;;23.86;70.43
40596;BME280;26304;48.794;9.820;2023-08-21T11:30:14;96936.06;;;23.78;71.50
40596;BME280;26304;48.794;9.820;2023-08-21T11:32:37;96958.34;;;23.91;73.48
40596;BME280;26304;48.794;9.820;2023-08-21T11:34:59;96991.88;;;24.27;70.23
40596;BME280;26304;48.794;9.820;2023-08-21T11:37:23;96984.81;;;24.06;69.53
40596;BME280;26304;48.794;9.820;2023-08-21T11:39:48;96982.16;;;24.06;69.09
40596;BME280;26304;48.794;9.820;2023-08-21T11:42:11;96985.97;;;24.01;69.23
40596;BME280;26304;48.794;9.820;2023-08-21T11:44:39;96985.59;;;24.03;69.13
40596;BME280;26304;48.794;9.820;2023-08-21T11:47:03;96985.97;;;24.01;70.14
40596;BME280;26304;48.794;9.820;2023-08-21T11:49:26;96983.03;;;23.92;69.22
40596;BME280;26304;48.794;9.820;2023-08-21T11:51:49;96983.72;;;24.00;69.48
40596;BME280;26304;48.794;9.820;2023-08-21T11:54:11;96985.22;;;24.01;69.31
40596;BME280;26304;48.794;9.820;2023-08-21T11:56:33;96979.19;;;23.97;69.00
40596;BME280;26304;48.794;9.820;2023-08-21T11:58:46;96976.94;;;23.95;68.65
40596;BME280;26304;48.794;9.820;2023-08-21T12:01:05;96979.25;;;23.89;68.39
40596;BME280;26304;48.794;9.820;2023-08-21T12:03:09;96983.38;;;23.94;68.14
40596;BME280;26304;48.794;9.820;2023-08-21T12:05:32;96979.59;;;23.91;68.85
40596;BME280;26304;48.794;9.820;2023-08-21T12:07:55;96981.25;;;24.23;71.69
40596;BME280;26304;48.794;9.820;2023-08-21T12:10:13;96975.81;;;24.38;71.02
40596;BME280;26304;48.794;9.820;2023-08-21T12:12:33;96981.78;;;24.49;72.45
40596;BME280;26304;48.794;9.820;2023-08-21T12:14:54;96978.31;;;24.59;73.07
40596;BME280;26304;48.794;9.820;2023-08-21T12:16:57;96970.25;;;24.66;73.18
40596;BME280;26304;48.794;9.820;2023-08-21T12:19:07;96971.31;;;24.76;74.62
40596;BME280;26304;48.794;9.820;2023-08-21T12:21:30;96970.22;;;24.70;75.44